createdAt,value
2016-05-15T00:00:15.325Z,0
2016-05-15T00:01:15.499Z,0
2016-05-15T00:02:15.190Z,0
2016-05-15T00:03:15.488Z,0
2016-05-15T00:04:15.586Z,0
2016-05-15T00:05:15.542Z,0
2016-05-15T00:06:15.529Z,0
2016-05-15T00:07:15.532Z,0
2016-05-15T00:08:15.534Z,0
2016-05-15T00:09:15.536Z,0
2016-05-15T00:10:15.382Z,0
2016-05-15T00:11:15.402Z,0
2016-05-15T00:12:15.404Z,0
2016-05-15T00:13:15.563Z,0
2016-05-15T00:14:15.565Z,0
2016-05-15T00:15:15.412Z,0
2016-05-15T00:16:15.587Z,0
2016-05-15T00:17:15.448Z,0
2016-05-15T00:18:15.592Z,0
2016-05-15T00:19:16.157Z,0
2016-05-15T00:20:15.456Z,0
2016-05-15T00:21:15.303Z,0
2016-05-15T00:22:15.619Z,0
2016-05-15T00:23:15.636Z,0
2016-05-15T00:24:15.484Z,0
2016-05-15T00:25:15.642Z,0
2016-05-15T00:26:15.661Z,0
2016-05-15T00:27:15.663Z,0
2016-05-15T00:28:15.510Z,0
2016-05-15T00:29:15.512Z,0
2016-05-15T00:30:15.686Z,0
2016-05-15T00:31:15.689Z,0
2016-05-15T00:32:15.692Z,0
2016-05-15T00:33:15.539Z,0
2016-05-15T00:34:15.994Z,0
2016-05-15T00:35:15.560Z,0
2016-05-15T00:36:15.718Z,0
2016-05-15T00:37:15.409Z,0
2016-05-15T00:38:15.724Z,0
2016-05-15T00:39:15.742Z,0
2016-05-15T00:40:15.745Z,0
2016-05-15T00:41:15.763Z,0
2016-05-15T00:42:15.593Z,0
2016-05-15T00:43:15.768Z,0
2016-05-15T00:44:15.771Z,0
2016-05-15T00:45:15.774Z,0
2016-05-15T00:46:15.776Z,0
2016-05-15T00:47:15.779Z,0
2016-05-15T00:48:15.642Z,0
2016-05-15T00:49:15.722Z,0
2016-05-15T00:50:15.820Z,0
2016-05-15T00:51:15.822Z,0
2016-05-15T00:52:15.825Z,0
2016-05-15T00:53:15.811Z,0
2016-05-15T00:54:15.939Z,0
2016-05-15T00:55:15.707Z,0
2016-05-15T00:56:15.694Z,0
2016-05-15T00:57:15.853Z,0
2016-05-15T00:58:15.856Z,0
2016-05-15T00:59:15.702Z,0
2016-05-15T01:00:15.877Z,0
2016-05-15T01:01:15.880Z,0
2016-05-15T01:02:15.726Z,0
2016-05-15T01:03:51.997Z,0
2016-05-15T01:04:15.966Z,0
2016-05-15T01:05:15.906Z,0
2016-05-15T01:06:15.940Z,0
2016-05-15T01:07:15.943Z,0
2016-05-15T01:08:15.946Z,0
2016-05-15T01:09:15.932Z,0
2016-05-15T01:10:15.794Z,0
2016-05-15T01:11:15.797Z,0
2016-05-15T01:12:15.957Z,0
2016-05-15T01:13:15.959Z,0
2016-05-15T01:14:15.977Z,0
2016-05-15T01:15:15.995Z,0
2016-05-15T01:16:15.982Z,0
2016-05-15T01:17:16.001Z,0
2016-05-15T01:18:16.003Z,0
2016-05-15T01:19:16.193Z,0
2016-05-15T01:20:16.009Z,0
2016-05-15T01:21:16.027Z,0
2016-05-15T01:22:16.031Z,0
2016-05-15T01:23:15.876Z,0
2016-05-15T01:24:15.739Z,0
2016-05-15T01:25:15.881Z,0
2016-05-15T01:26:16.041Z,0
2016-05-15T01:27:16.059Z,0
2016-05-15T01:28:16.077Z,0
2016-05-15T01:29:16.064Z,0
2016-05-15T01:30:15.911Z,0
2016-05-15T01:31:16.085Z,0
2016-05-15T01:32:15.932Z,0
2016-05-15T01:33:15.935Z,0
2016-05-15T01:34:15.953Z,0
2016-05-15T01:35:16.111Z,0
2016-05-15T01:36:15.974Z,0
2016-05-15T01:37:16.133Z,0
2016-05-15T01:38:16.119Z,0
2016-05-15T01:39:16.138Z,0
2016-05-15T01:40:16.157Z,0
2016-05-15T01:41:16.002Z,0
2016-05-15T01:42:16.162Z,0
2016-05-15T01:43:15.992Z,0
2016-05-15T01:44:16.167Z,0
2016-05-15T01:45:16.170Z,0
2016-05-15T01:46:16.187Z,0
2016-05-15T01:47:16.190Z,0
2016-05-15T01:48:16.193Z,0
2016-05-15T01:49:16.337Z,0
2016-05-15T01:50:16.215Z,0
2016-05-15T01:51:16.217Z,0
2016-05-15T01:52:16.064Z,0
2016-05-15T01:53:16.222Z,0
2016-05-15T01:54:16.242Z,0
2016-05-15T01:55:15.931Z,0
2016-05-15T01:56:16.106Z,0
2016-05-15T01:57:16.092Z,0
2016-05-15T01:58:16.111Z,0
2016-05-15T01:59:16.270Z,0
2016-05-15T02:00:16.116Z,0
2016-05-15T02:01:16.275Z,0
2016-05-15T02:02:16.294Z,0
2016-05-15T02:03:16.141Z,0
2016-05-15T02:04:16.721Z,0
2016-05-15T02:05:16.161Z,0
2016-05-15T02:06:16.319Z,0
2016-05-15T02:07:16.338Z,0
2016-05-15T02:08:16.325Z,0
2016-05-15T02:09:16.312Z,0
2016-05-15T02:10:16.331Z,0
2016-05-15T02:11:16.193Z,0
2016-05-15T02:12:16.352Z,0
2016-05-15T02:13:16.354Z,0
2016-05-15T02:14:16.358Z,0
2016-05-15T02:15:16.219Z,0
2016-05-15T02:16:16.378Z,0
2016-05-15T02:17:16.397Z,0
2016-05-15T02:18:16.384Z,0
2016-05-15T02:19:16.948Z,0
2016-05-15T02:20:16.405Z,0
2016-05-15T02:21:16.407Z,0
2016-05-15T02:22:16.410Z,0
2016-05-15T02:23:16.428Z,0
2016-05-15T02:24:16.431Z,0
2016-05-15T02:25:16.450Z,0
2016-05-15T02:26:16.295Z,0
2016-05-15T02:27:16.439Z,0
2016-05-15T02:28:16.442Z,0
2016-05-15T02:29:16.461Z,0
2016-05-15T02:30:16.463Z,0
2016-05-15T02:31:16.481Z,0
2016-05-15T02:32:16.468Z,0
2016-05-15T02:33:16.487Z,0
2016-05-15T02:34:17.005Z,0
2016-05-15T02:35:16.491Z,0
2016-05-15T02:36:16.338Z,0
2016-05-15T02:37:16.372Z,0
2016-05-15T02:38:16.360Z,0
2016-05-15T02:39:16.533Z,0
2016-05-15T02:40:16.536Z,0
2016-05-15T02:41:16.539Z,0
2016-05-15T02:42:16.541Z,0
2016-05-15T02:43:16.560Z,0
2016-05-15T02:44:16.547Z,0
2016-05-15T02:45:16.550Z,0
2016-05-15T02:46:16.568Z,0
2016-05-15T02:47:16.571Z,0
2016-05-15T02:48:16.432Z,0
2016-05-15T02:49:16.592Z,0
2016-05-15T02:50:16.454Z,0
2016-05-15T02:51:16.612Z,0
2016-05-15T02:52:16.601Z,0
2016-05-15T02:53:16.446Z,0
2016-05-15T02:54:16.323Z,0
2016-05-15T02:55:16.639Z,0
2016-05-15T02:56:16.314Z,0
2016-05-15T02:57:16.473Z,0
2016-05-15T02:58:16.506Z,0
2016-05-15T02:59:16.495Z,0
2016-05-15T03:00:16.497Z,0
2016-05-15T03:01:16.655Z,0
2016-05-15T03:02:16.502Z,0
2016-05-15T03:03:16.661Z,0
2016-05-15T03:04:17.257Z,0
2016-05-15T03:05:16.682Z,0
2016-05-15T03:06:16.700Z,0
2016-05-15T03:07:16.703Z,0
2016-05-15T03:08:16.721Z,0
2016-05-15T03:09:16.708Z,0
2016-05-15T03:10:16.727Z,0
2016-05-15T03:11:16.729Z,0
2016-05-15T03:12:16.732Z,0
2016-05-15T03:13:16.735Z,0
2016-05-15T03:14:16.753Z,0
2016-05-15T03:15:16.771Z,0
2016-05-15T03:16:16.774Z,0
2016-05-15T03:17:16.777Z,0
2016-05-15T03:18:16.607Z,0
2016-05-15T03:19:16.704Z,0
2016-05-15T03:20:16.784Z,0
2016-05-15T03:21:16.804Z,0
2016-05-15T03:22:16.634Z,0
2016-05-15T03:23:16.636Z,0
2016-05-15T03:24:17.093Z,0
2016-05-15T03:25:16.673Z,0
2016-05-15T03:26:16.847Z,0
2016-05-15T03:27:16.835Z,0
2016-05-15T03:28:16.822Z,0
2016-05-15T03:29:16.840Z,0
2016-05-15T03:30:16.686Z,0
2016-05-15T03:31:16.861Z,0
2016-05-15T03:32:16.708Z,0
2016-05-15T03:33:16.710Z,0
2016-05-15T03:34:16.588Z,0
2016-05-15T03:35:16.872Z,0
2016-05-15T03:36:16.875Z,0
2016-05-15T03:37:16.736Z,0
2016-05-15T03:38:16.896Z,0
2016-05-15T03:39:16.914Z,0
2016-05-15T03:40:16.916Z,0
2016-05-15T03:41:16.935Z,0
2016-05-15T03:42:16.922Z,0
2016-05-15T03:43:16.613Z,0
2016-05-15T03:44:16.927Z,0
2016-05-15T03:45:16.945Z,0
2016-05-15T03:46:16.964Z,0
2016-05-15T03:47:16.795Z,0
2016-05-15T03:48:16.812Z,0
2016-05-15T03:49:18.426Z,0
2016-05-15T03:50:16.663Z,0
2016-05-15T03:51:16.977Z,0
2016-05-15T03:52:16.979Z,0
2016-05-15T03:53:16.827Z,0
2016-05-15T03:54:16.985Z,0
2016-05-15T03:55:17.019Z,0
2016-05-15T03:56:17.023Z,0
2016-05-15T03:57:17.025Z,0
2016-05-15T03:58:16.871Z,0
2016-05-15T03:59:17.014Z,0
2016-05-15T04:00:17.033Z,0
2016-05-15T04:01:16.895Z,0
2016-05-15T04:02:16.897Z,0
2016-05-15T04:03:17.041Z,0
2016-05-15T04:04:17.716Z,0
2016-05-15T04:05:17.078Z,0
2016-05-15T04:06:17.096Z,0
2016-05-15T04:07:16.770Z,0
2016-05-15T04:08:17.102Z,0
2016-05-15T04:09:17.104Z,0
2016-05-15T04:10:17.107Z,0
2016-05-15T04:11:17.110Z,0
2016-05-15T04:12:17.113Z,0
2016-05-15T04:13:16.958Z,0
2016-05-15T04:14:17.132Z,0
2016-05-15T04:15:16.980Z,0
2016-05-15T04:16:17.138Z,0
2016-05-15T04:17:17.140Z,0
2016-05-15T04:18:16.988Z,0
2016-05-15T04:19:17.474Z,0
2016-05-15T04:20:17.165Z,0
2016-05-15T04:21:17.027Z,0
2016-05-15T04:22:17.186Z,0
2016-05-15T04:23:17.188Z,0
2016-05-15T04:24:17.237Z,0
2016-05-15T04:25:17.288Z,0
2016-05-15T04:26:17.196Z,0
2016-05-15T04:27:17.215Z,0
2016-05-15T04:28:17.217Z,0
2016-05-15T04:29:17.204Z,0
2016-05-15T04:30:17.223Z,0
2016-05-15T04:31:17.241Z,0
2016-05-15T04:32:17.244Z,0
2016-05-15T04:33:17.090Z,0
2016-05-15T04:34:17.375Z,0
2016-05-15T04:35:17.267Z,0
2016-05-15T04:36:17.114Z,0
2016-05-15T04:37:16.961Z,0
2016-05-15T04:38:17.119Z,0
2016-05-15T04:39:17.294Z,0
2016-05-15T04:40:17.313Z,0
2016-05-15T04:41:17.346Z,0
2016-05-15T04:42:17.302Z,0
2016-05-15T04:43:17.305Z,0
2016-05-15T04:44:17.323Z,0
2016-05-15T04:45:17.310Z,5
2016-05-15T04:46:17.343Z,5
2016-05-15T04:47:17.175Z,5
2016-05-15T04:48:17.177Z,5
2016-05-15T04:49:17.196Z,5
2016-05-15T04:50:17.355Z,5
2016-05-15T04:51:17.201Z,5
2016-05-15T04:52:17.360Z,5
2016-05-15T04:53:17.363Z,5
2016-05-15T04:54:17.381Z,5
2016-05-15T04:55:17.384Z,5
2016-05-15T04:56:17.402Z,5
2016-05-15T04:57:17.421Z,5
2016-05-15T04:58:17.392Z,5
2016-05-15T04:59:17.270Z,5
2016-05-15T05:00:17.412Z,5
2016-05-15T05:01:17.431Z,5
2016-05-15T05:02:17.278Z,5
2016-05-15T05:03:17.436Z,5
2016-05-15T05:04:17.487Z,5
2016-05-15T05:05:17.442Z,5
2016-05-15T05:06:17.475Z,5
2016-05-15T05:07:17.307Z,5
2016-05-15T05:08:17.325Z,5
2016-05-15T05:09:17.327Z,5
2016-05-15T05:10:17.487Z,5
2016-05-15T05:11:17.333Z,5
2016-05-15T05:12:17.336Z,5
2016-05-15T05:13:17.494Z,5
2016-05-15T05:14:17.497Z,5
2016-05-15T05:15:17.203Z,5
2016-05-15T05:16:17.518Z,5
2016-05-15T05:17:17.521Z,5
2016-05-15T05:18:17.540Z,5
2016-05-15T05:19:17.636Z,10
2016-05-15T05:20:17.388Z,10
2016-05-15T05:21:17.548Z,10
2016-05-15T05:22:17.410Z,10
2016-05-15T05:23:17.396Z,10
2016-05-15T05:24:17.571Z,10
2016-05-15T05:25:17.573Z,10
2016-05-15T05:26:17.437Z,10
2016-05-15T05:27:17.579Z,10
2016-05-15T05:28:17.441Z,10
2016-05-15T05:29:17.601Z,10
2016-05-15T05:30:17.447Z,10
2016-05-15T05:31:17.464Z,10
2016-05-15T05:32:31.549Z,5
2016-05-15T05:33:17.627Z,5
2016-05-15T05:34:17.567Z,10
2016-05-15T05:35:17.319Z,10
2016-05-15T05:36:17.479Z,5
2016-05-15T05:37:17.653Z,10
2016-05-15T05:38:17.343Z,10
2016-05-15T05:39:17.502Z,10
2016-05-15T05:40:17.520Z,10
2016-05-15T05:41:17.523Z,10
2016-05-15T05:42:17.666Z,5
2016-05-15T05:43:17.528Z,5
2016-05-15T05:44:17.688Z,0
2016-05-15T05:45:17.705Z,0
2016-05-15T05:46:17.552Z,0
2016-05-15T05:47:17.399Z,0
2016-05-15T05:48:17.558Z,0
2016-05-15T05:49:18.623Z,0
2016-05-15T05:50:17.735Z,0
2016-05-15T05:51:17.582Z,0
2016-05-15T05:52:17.740Z,0
2016-05-15T05:53:17.602Z,0
2016-05-15T05:54:17.762Z,0
2016-05-15T05:55:17.764Z,0
2016-05-15T05:56:17.767Z,5
2016-05-15T05:57:17.785Z,5
2016-05-15T05:58:17.803Z,5
2016-05-15T05:59:17.806Z,5
2016-05-15T06:00:17.323Z,5
2016-05-15T06:01:17.890Z,5
2016-05-15T06:02:17.658Z,5
2016-05-15T06:03:17.817Z,5
2016-05-15T06:04:18.054Z,5
2016-05-15T06:05:17.666Z,5
2016-05-15T06:06:17.825Z,5
2016-05-15T06:07:17.672Z,5
2016-05-15T06:08:17.705Z,5
2016-05-15T06:09:17.536Z,5
2016-05-15T06:10:17.866Z,5
2016-05-15T06:11:17.698Z,5
2016-05-15T06:12:17.560Z,10
2016-05-15T06:13:17.875Z,10
2016-05-15T06:14:17.893Z,10
2016-05-15T06:15:17.880Z,10
2016-05-15T06:16:17.727Z,10
2016-05-15T06:17:17.760Z,10
2016-05-15T06:18:17.905Z,10
2016-05-15T06:19:17.766Z,15
2016-05-15T06:20:17.924Z,15
2016-05-15T06:21:17.928Z,20
2016-05-15T06:22:17.915Z,30
2016-05-15T06:23:17.776Z,50
2016-05-15T06:24:17.951Z,80
2016-05-15T06:25:17.970Z,110
2016-05-15T06:26:17.973Z,150
2016-05-15T06:27:17.662Z,330
2016-05-15T06:28:17.837Z,220
2016-05-15T06:29:17.981Z,430
2016-05-15T06:30:17.983Z,325
2016-05-15T06:31:17.986Z,460
2016-05-15T06:32:18.004Z,575
2016-05-15T06:33:17.851Z,215
2016-05-15T06:34:18.025Z,125
2016-05-15T06:35:18.012Z,105
2016-05-15T06:36:18.015Z,80
2016-05-15T06:37:18.017Z,65
2016-05-15T06:38:18.364Z,50
2016-05-15T06:39:17.741Z,55
2016-05-15T06:40:17.886Z,55
2016-05-15T06:41:18.059Z,45
2016-05-15T06:42:18.061Z,45
2016-05-15T06:43:18.081Z,55
2016-05-15T06:44:17.927Z,70
2016-05-15T06:45:18.102Z,70
2016-05-15T06:46:17.947Z,65
2016-05-15T06:47:17.951Z,60
2016-05-15T06:48:18.110Z,50
2016-05-15T06:49:18.346Z,50
2016-05-15T06:50:18.116Z,55
2016-05-15T06:51:18.118Z,70
2016-05-15T06:52:18.135Z,85
2016-05-15T06:53:18.170Z,110
2016-05-15T06:54:18.157Z,70
2016-05-15T06:55:17.551Z,75
2016-05-15T06:56:18.162Z,85
2016-05-15T06:57:18.165Z,85
2016-05-15T06:58:18.012Z,580
2016-05-15T06:59:18.201Z,200
2016-05-15T07:00:18.032Z,115
2016-05-15T07:01:18.192Z,100
2016-05-15T07:02:18.195Z,100
2016-05-15T07:03:18.197Z,90
2016-05-15T07:04:17.903Z,85
2016-05-15T07:05:18.234Z,75
2016-05-15T07:06:18.220Z,80
2016-05-15T07:07:18.253Z,95
2016-05-15T07:08:17.929Z,115
2016-05-15T07:09:18.275Z,50
2016-05-15T07:10:18.262Z,40
2016-05-15T07:11:18.264Z,45
2016-05-15T07:12:18.268Z,55
2016-05-15T07:13:18.270Z,60
2016-05-15T07:14:18.288Z,70
2016-05-15T07:15:18.308Z,60
2016-05-15T07:16:18.310Z,60
2016-05-15T07:17:18.313Z,180
2016-05-15T07:18:17.988Z,120
2016-05-15T07:19:18.536Z,80
2016-05-15T07:20:18.321Z,100
2016-05-15T07:21:18.166Z,155
2016-05-15T07:22:18.373Z,60
2016-05-15T07:23:18.172Z,50
2016-05-15T07:24:18.347Z,45
2016-05-15T07:25:18.365Z,45
2016-05-15T07:26:18.055Z,40
2016-05-15T07:27:18.371Z,35
2016-05-15T07:28:18.373Z,50
2016-05-15T07:29:18.235Z,55
2016-05-15T07:30:18.379Z,60
2016-05-15T07:31:18.241Z,60
2016-05-15T07:32:18.400Z,60
2016-05-15T07:33:18.403Z,70
2016-05-15T07:34:18.468Z,70
2016-05-15T07:35:18.423Z,75
2016-05-15T07:36:18.425Z,75
2016-05-15T07:37:18.429Z,65
2016-05-15T07:38:18.306Z,60
2016-05-15T07:39:18.470Z,60
2016-05-15T07:40:18.516Z,65
2016-05-15T07:41:18.563Z,70
2016-05-15T07:42:18.608Z,50
2016-05-15T07:43:18.513Z,35
2016-05-15T07:44:18.703Z,30
2016-05-15T07:45:18.596Z,30
2016-05-15T07:46:18.740Z,30
2016-05-15T07:47:18.618Z,40
2016-05-15T07:48:18.808Z,45
2016-05-15T07:49:18.806Z,50
2016-05-15T07:50:18.814Z,55
2016-05-15T07:51:18.838Z,60
2016-05-15T07:52:18.689Z,65
2016-05-15T07:53:32.652Z,75
2016-05-15T07:54:18.876Z,75
2016-05-15T07:55:19.599Z,70
2016-05-15T07:56:18.745Z,65
2016-05-15T07:57:18.733Z,60
2016-05-15T07:58:18.738Z,65
2016-05-15T07:59:18.930Z,70
2016-05-15T08:00:18.918Z,65
2016-05-15T08:01:18.921Z,65
2016-05-15T08:02:18.783Z,70
2016-05-15T08:03:18.944Z,75
2016-05-15T08:04:19.228Z,70
2016-05-15T08:05:18.965Z,65
2016-05-15T08:06:18.953Z,80
2016-05-15T08:07:18.816Z,100
2016-05-15T08:08:18.803Z,120
2016-05-15T08:09:18.977Z,120
2016-05-15T08:10:18.841Z,110
2016-05-15T08:11:19.030Z,85
2016-05-15T08:12:18.845Z,80
2016-05-15T08:13:18.848Z,70
2016-05-15T08:14:19.022Z,75
2016-05-15T08:15:19.025Z,70
2016-05-15T08:16:19.027Z,70
2016-05-15T08:17:18.890Z,60
2016-05-15T08:18:19.033Z,60
2016-05-15T08:19:19.332Z,60
2016-05-15T08:20:19.054Z,60
2016-05-15T08:21:19.057Z,60
2016-05-15T08:22:19.076Z,60
2016-05-15T08:23:18.765Z,55
2016-05-15T08:24:19.143Z,55
2016-05-15T08:25:18.927Z,50
2016-05-15T08:26:18.773Z,45
2016-05-15T08:27:19.120Z,40
2016-05-15T08:28:19.106Z,35
2016-05-15T08:29:18.954Z,30
2016-05-15T08:30:18.972Z,25
2016-05-15T08:31:18.974Z,20
2016-05-15T08:32:20.742Z,15
2016-05-15T08:33:19.136Z,15
2016-05-15T08:34:19.155Z,15
2016-05-15T08:35:19.313Z,15
2016-05-15T08:36:19.161Z,15
2016-05-15T08:37:19.163Z,20
2016-05-15T08:38:19.180Z,25
2016-05-15T08:39:19.184Z,25
2016-05-15T08:40:19.171Z,30
2016-05-15T08:41:19.188Z,35
2016-05-15T08:42:19.051Z,35
2016-05-15T08:43:19.241Z,40
2016-05-15T08:44:19.072Z,45
2016-05-15T08:45:19.215Z,55
2016-05-15T08:46:19.218Z,60
2016-05-15T08:47:19.236Z,65
2016-05-15T08:48:19.254Z,85
2016-05-15T08:49:18.804Z,100
2016-05-15T08:50:19.104Z,110
2016-05-15T08:51:18.935Z,115
2016-05-15T08:52:19.296Z,115
2016-05-15T08:53:19.284Z,115
2016-05-15T08:54:19.270Z,115
2016-05-15T08:55:19.273Z,110
2016-05-15T08:56:19.120Z,130
2016-05-15T08:57:19.295Z,130
2016-05-15T08:58:19.297Z,165
2016-05-15T08:59:19.315Z,150
2016-05-15T09:00:19.318Z,145
2016-05-15T09:01:19.164Z,145
2016-05-15T09:02:19.167Z,150
2016-05-15T09:03:19.326Z,145
2016-05-15T09:04:19.047Z,165
2016-05-15T09:05:19.582Z,155
2016-05-15T09:06:19.194Z,155
2016-05-15T09:07:19.211Z,165
2016-05-15T09:08:19.371Z,175
2016-05-15T09:09:19.388Z,155
2016-05-15T09:10:19.219Z,150
2016-05-15T09:11:19.239Z,155
2016-05-15T09:12:19.397Z,165
2016-05-15T09:13:19.243Z,165
2016-05-15T09:14:19.122Z,175
2016-05-15T09:15:19.421Z,165
2016-05-15T09:16:19.267Z,150
2016-05-15T09:17:19.285Z,150
2016-05-15T09:18:19.289Z,145
2016-05-15T09:19:19.932Z,145
2016-05-15T09:20:19.481Z,160
2016-05-15T09:21:19.452Z,165
2016-05-15T09:22:19.454Z,155
2016-05-15T09:23:19.474Z,160
2016-05-15T09:24:19.476Z,135
2016-05-15T09:25:19.182Z,110
2016-05-15T09:26:19.498Z,90
2016-05-15T09:27:19.515Z,70
2016-05-15T09:28:19.503Z,60
2016-05-15T09:29:19.349Z,45
2016-05-15T09:30:19.398Z,35
2016-05-15T09:31:19.542Z,25
2016-05-15T09:32:19.545Z,15
2016-05-15T09:33:19.531Z,15
2016-05-15T09:34:19.628Z,15
2016-05-15T09:35:19.944Z,15
2016-05-15T09:36:19.571Z,15
2016-05-15T09:37:19.574Z,15
2016-05-15T09:38:19.577Z,15
2016-05-15T09:39:19.595Z,20
2016-05-15T09:40:19.582Z,20
2016-05-15T09:41:19.631Z,25
2016-05-15T09:42:19.603Z,25
2016-05-15T09:43:33.715Z,30
2016-05-15T09:44:19.624Z,30
2016-05-15T09:45:19.470Z,30
2016-05-15T09:46:19.630Z,30
2016-05-15T09:47:19.632Z,30
2016-05-15T09:48:19.650Z,25
2016-05-15T09:49:20.090Z,25
2016-05-15T09:50:20.062Z,25
2016-05-15T09:51:19.205Z,25
2016-05-15T09:52:19.505Z,25
2016-05-15T09:53:19.523Z,25
2016-05-15T09:54:19.698Z,25
2016-05-15T09:55:19.528Z,30
2016-05-15T09:56:19.687Z,30
2016-05-15T09:57:19.534Z,30
2016-05-15T09:58:19.551Z,40
2016-05-15T09:59:19.555Z,40
2016-05-15T10:00:19.745Z,45
2016-05-15T10:01:19.717Z,40
2016-05-15T10:02:19.734Z,40
2016-05-15T10:03:19.737Z,40
2016-05-15T10:04:19.600Z,45
2016-05-15T10:05:19.602Z,45
2016-05-15T10:06:19.605Z,50
2016-05-15T10:07:19.780Z,55
2016-05-15T10:08:19.767Z,60
2016-05-15T10:09:19.769Z,65
2016-05-15T10:10:19.615Z,70
2016-05-15T10:11:19.633Z,80
2016-05-15T10:12:19.825Z,90
2016-05-15T10:13:19.655Z,115
2016-05-15T10:14:19.641Z,115
2016-05-15T10:15:19.520Z,125
2016-05-15T10:16:19.663Z,130
2016-05-15T10:17:19.838Z,130
2016-05-15T10:18:19.527Z,130
2016-05-15T10:19:19.781Z,130
2016-05-15T10:20:19.393Z,125
2016-05-15T10:21:19.724Z,125
2016-05-15T10:22:19.866Z,125
2016-05-15T10:23:19.868Z,125
2016-05-15T10:24:19.576Z,125
2016-05-15T10:25:19.890Z,130
2016-05-15T10:26:19.893Z,125
2016-05-15T10:27:19.895Z,125
2016-05-15T10:28:19.914Z,125
2016-05-15T10:29:19.932Z,130
2016-05-15T10:30:19.779Z,140
2016-05-15T10:31:19.875Z,145
2016-05-15T10:32:19.956Z,125
2016-05-15T10:33:19.928Z,110
2016-05-15T10:34:20.431Z,90
2016-05-15T10:35:20.073Z,65
2016-05-15T10:36:20.013Z,55
2016-05-15T10:37:19.954Z,45
2016-05-15T10:38:19.973Z,40
2016-05-15T10:39:19.803Z,45
2016-05-15T10:40:19.977Z,55
2016-05-15T10:41:20.043Z,65
2016-05-15T10:42:19.827Z,70
2016-05-15T10:43:19.845Z,75
2016-05-15T10:44:20.004Z,80
2016-05-15T10:45:20.007Z,75
2016-05-15T10:46:20.025Z,75
2016-05-15T10:47:19.559Z,80
2016-05-15T10:48:19.921Z,80
2016-05-15T10:49:20.189Z,100
2016-05-15T10:50:19.770Z,110
2016-05-15T10:51:19.930Z,110
2016-05-15T10:52:20.072Z,85
2016-05-15T10:53:19.903Z,85
2016-05-15T10:54:19.781Z,110
2016-05-15T10:55:20.079Z,100
2016-05-15T10:56:19.958Z,115
2016-05-15T10:57:20.117Z,115
2016-05-15T10:58:19.948Z,120
2016-05-15T10:59:19.950Z,120
2016-05-15T11:00:20.126Z,115
2016-05-15T11:01:20.112Z,115
2016-05-15T11:02:20.131Z,100
2016-05-15T11:03:19.976Z,95
2016-05-15T11:04:20.168Z,100
2016-05-15T11:05:19.856Z,100
2016-05-15T11:06:20.173Z,105
2016-05-15T11:07:20.159Z,105
2016-05-15T11:08:19.865Z,125
2016-05-15T11:09:19.867Z,120
2016-05-15T11:10:20.184Z,125
2016-05-15T11:11:20.186Z,130
2016-05-15T11:12:20.048Z,130
2016-05-15T11:13:20.050Z,125
2016-05-15T11:14:20.210Z,130
2016-05-15T11:15:20.212Z,125
2016-05-15T11:16:20.294Z,115
2016-05-15T11:17:20.249Z,110
2016-05-15T11:18:20.096Z,100
2016-05-15T11:19:20.113Z,85
2016-05-15T11:20:20.319Z,70
2016-05-15T11:21:20.275Z,60
2016-05-15T11:22:20.106Z,45
2016-05-15T11:23:20.280Z,35
2016-05-15T11:24:25.502Z,30
2016-05-15T11:25:19.973Z,25
2016-05-15T11:26:19.992Z,25
2016-05-15T11:27:20.151Z,25
2016-05-15T11:28:20.137Z,20
2016-05-15T11:29:20.171Z,20
2016-05-15T11:30:20.315Z,15
2016-05-15T11:31:20.318Z,15
2016-05-15T11:32:20.336Z,20
2016-05-15T11:33:20.339Z,20
2016-05-15T11:34:20.185Z,25
2016-05-15T11:35:21.188Z,30
2016-05-15T11:36:20.362Z,45
2016-05-15T11:37:20.334Z,40
2016-05-15T11:38:20.227Z,50
2016-05-15T11:39:20.386Z,60
2016-05-15T11:40:20.373Z,65
2016-05-15T11:41:20.236Z,75
2016-05-15T11:42:20.238Z,70
2016-05-15T11:43:20.834Z,75
2016-05-15T11:44:20.415Z,75
2016-05-15T11:45:20.434Z,75
2016-05-15T11:46:20.421Z,75
2016-05-15T11:47:20.283Z,75
2016-05-15T11:48:20.441Z,70
2016-05-15T11:49:20.507Z,65
2016-05-15T11:50:20.181Z,50
2016-05-15T11:51:20.450Z,45
2016-05-15T11:52:20.452Z,40
2016-05-15T11:53:20.315Z,45
2016-05-15T11:54:20.520Z,50
2016-05-15T11:55:20.491Z,55
2016-05-15T11:56:20.556Z,55
2016-05-15T11:57:20.357Z,50
2016-05-15T11:58:20.516Z,50
2016-05-15T11:59:20.502Z,45
2016-05-15T12:00:20.520Z,50
2016-05-15T12:01:20.523Z,45
2016-05-15T12:02:20.526Z,45
2016-05-15T12:03:20.404Z,50
2016-05-15T12:04:20.266Z,60
2016-05-15T12:05:20.831Z,60
2016-05-15T12:06:20.584Z,65
2016-05-15T12:07:20.555Z,70
2016-05-15T12:08:20.401Z,70
2016-05-15T12:09:20.576Z,75
2016-05-15T12:10:20.423Z,80
2016-05-15T12:11:20.613Z,85
2016-05-15T12:12:20.444Z,85
2016-05-15T12:13:20.447Z,85
2016-05-15T12:14:20.606Z,95
2016-05-15T12:15:20.467Z,90
2016-05-15T12:16:20.470Z,90
2016-05-15T12:17:20.472Z,95
2016-05-15T12:18:20.632Z,100
2016-05-15T12:19:20.790Z,95
2016-05-15T12:20:20.621Z,90
2016-05-15T12:21:20.641Z,95
2016-05-15T12:22:20.674Z,100
2016-05-15T12:23:20.677Z,100
2016-05-15T12:24:20.694Z,100
2016-05-15T12:25:20.697Z,100
2016-05-15T12:26:20.668Z,85
2016-05-15T12:27:20.703Z,95
2016-05-15T12:28:20.549Z,90
2016-05-15T12:29:20.412Z,90
2016-05-15T12:30:20.710Z,90
2016-05-15T12:31:20.713Z,90
2016-05-15T12:32:20.732Z,85
2016-05-15T12:33:20.735Z,90
2016-05-15T12:34:20.596Z,85
2016-05-15T12:35:21.099Z,90
2016-05-15T12:36:20.758Z,90
2016-05-15T12:37:20.745Z,80
2016-05-15T12:38:20.764Z,75
2016-05-15T12:39:20.610Z,70
2016-05-15T12:40:20.785Z,65
2016-05-15T12:41:20.787Z,65
2016-05-15T12:42:20.790Z,70
2016-05-15T12:43:20.636Z,70
2016-05-15T12:44:20.639Z,75
2016-05-15T12:45:20.813Z,80
2016-05-15T12:46:20.348Z,80
2016-05-15T12:47:20.819Z,70
2016-05-15T12:48:20.697Z,65
2016-05-15T12:49:20.778Z,60
2016-05-15T12:50:20.858Z,65
2016-05-15T12:51:20.877Z,70
2016-05-15T12:52:20.879Z,75
2016-05-15T12:53:20.882Z,60
2016-05-15T12:54:20.713Z,55
2016-05-15T12:55:20.732Z,55
2016-05-15T12:56:20.890Z,50
2016-05-15T12:57:20.893Z,50
2016-05-15T12:58:20.896Z,55
2016-05-15T12:59:20.743Z,45
2016-05-15T13:00:20.916Z,40
2016-05-15T13:01:20.919Z,40
2016-05-15T13:02:20.953Z,40
2016-05-15T13:03:20.924Z,45
2016-05-15T13:04:21.333Z,50
2016-05-15T13:05:20.712Z,50
2016-05-15T13:06:20.964Z,50
2016-05-15T13:07:20.967Z,50
2016-05-15T13:08:20.953Z,50
2016-05-15T13:09:20.972Z,45
2016-05-15T13:10:20.974Z,50
2016-05-15T13:11:20.664Z,50
2016-05-15T13:12:20.981Z,55
2016-05-15T13:13:20.998Z,55
2016-05-15T13:14:20.861Z,55
2016-05-15T13:15:21.003Z,55
2016-05-15T13:16:20.866Z,55
2016-05-15T13:17:21.025Z,55
2016-05-15T13:18:21.059Z,55
2016-05-15T13:19:21.155Z,60
2016-05-15T13:20:21.127Z,65
2016-05-15T13:21:20.738Z,80
2016-05-15T13:22:20.897Z,80
2016-05-15T13:23:21.057Z,75
2016-05-15T13:24:20.918Z,80
2016-05-15T13:25:21.063Z,80
2016-05-15T13:26:21.065Z,85
2016-05-15T13:27:20.770Z,80
2016-05-15T13:28:21.101Z,85
2016-05-15T13:29:21.088Z,85
2016-05-15T13:30:20.965Z,85
2016-05-15T13:31:21.110Z,85
2016-05-15T13:32:21.112Z,80
2016-05-15T13:33:20.974Z,80
2016-05-15T13:34:21.132Z,75
2016-05-15T13:35:21.339Z,75
2016-05-15T13:36:20.982Z,70
2016-05-15T13:37:21.140Z,65
2016-05-15T13:38:20.847Z,65
2016-05-15T13:39:21.162Z,65
2016-05-15T13:40:21.165Z,65
2016-05-15T13:41:21.183Z,65
2016-05-15T13:42:21.029Z,65
2016-05-15T13:43:21.719Z,65
2016-05-15T13:44:21.035Z,65
2016-05-15T13:45:21.037Z,60
2016-05-15T13:46:20.884Z,60
2016-05-15T13:47:21.215Z,60
2016-05-15T13:48:21.077Z,55
2016-05-15T13:49:21.236Z,55
2016-05-15T13:50:21.097Z,60
2016-05-15T13:51:21.069Z,65
2016-05-15T13:52:21.260Z,60
2016-05-15T13:53:21.262Z,60
2016-05-15T13:54:21.265Z,60
2016-05-15T13:55:21.268Z,60
2016-05-15T13:56:21.270Z,55
2016-05-15T13:57:21.382Z,55
2016-05-15T13:58:21.276Z,55
2016-05-15T13:59:30.247Z,50
2016-05-15T14:00:21.203Z,45
2016-05-15T14:01:21.315Z,45
2016-05-15T14:02:21.318Z,45
2016-05-15T14:03:21.179Z,45
2016-05-15T14:04:21.354Z,50
2016-05-15T14:05:21.340Z,50
2016-05-15T14:06:21.360Z,50
2016-05-15T14:07:21.191Z,55
2016-05-15T14:08:21.209Z,55
2016-05-15T14:09:21.352Z,50
2016-05-15T14:10:21.370Z,55
2016-05-15T14:11:21.389Z,60
2016-05-15T14:12:21.220Z,65
2016-05-15T14:13:21.394Z,65
2016-05-15T14:14:21.397Z,70
2016-05-15T14:15:21.259Z,70
2016-05-15T14:16:21.403Z,75
2016-05-15T14:17:21.264Z,75
2016-05-15T14:18:21.423Z,75
2016-05-15T14:19:21.285Z,65
2016-05-15T14:20:21.460Z,65
2016-05-15T14:21:24.212Z,65
2016-05-15T14:22:21.465Z,65
2016-05-15T14:23:21.453Z,65
2016-05-15T14:24:21.455Z,65